sensor_id;sensor_type;location;lat;lon;timestamp;temperature;humidity
10597;DHT22;5346;48.766;8.674;2023-02-28T00:00:44;-5.50;1.00
10597;DHT22;5346;48.766;8.674;2023-02-28T00:03:17;-5.50;1.00
10597;DHT22;5346;48.766;8.674;2023-02-28T00:05:45;-5.50;1.00
10597;DHT22;5346;48.766;8.674;2023-02-28T00:08:17;-5.60;1.00
10597;DHT22;5346;48.766;8.674;2023-02-28T00:10:50;-5.50;1.00
10597;DHT22;5346;48.766;8.674;2023-02-28T00:13:17;-5.40;1.00
10597;DHT22;5346;48.766;8.674;2023-02-28T00:15:59;-5.50;1.00
10597;DHT22;5346;48.766;8.674;2023-02-28T00:18:31;-5.50;1.00
10597;DHT22;5346;48.766;8.674;2023-02-28T00:21:05;-5.50;1.00
10597;DHT22;5346;48.766;8.674;2023-02-28T00:23:39;-5.50;1.00
10597;DHT22;5346;48.766;8.674;2023-02-28T00:26:13;-5.50;1.00
10597;DHT22;5346;48.766;8.674;2023-02-28T00:28:47;-5.60;1.00
10597;DHT22;5346;48.766;8.674;2023-02-28T00:31:22;-5.70;1.00
10597;DHT22;5346;48.766;8.674;2023-02-28T00:33:56;-5.70;1.00
10597;DHT22;5346;48.766;8.674;2023-02-28T00:36:32;-5.70;1.00
10597;DHT22;5346;48.766;8.674;2023-02-28T00:38:58;-5.70;1.00
10597;DHT22;5346;48.766;8.674;2023-02-28T00:41:31;-5.70;1.00
10597;DHT22;5346;48.766;8.674;2023-02-28T00:44:05;-5.70;1.00
10597;DHT22;5346;48.766;8.674;2023-02-28T00:46:51;-5.70;1.00
10597;DHT22;5346;48.766;8.674;2023-02-28T00:49:27;-5.80;1.00
10597;DHT22;5346;48.766;8.674;2023-02-28T00:51:55;-5.90;1.00
10597;DHT22;5346;48.766;8.674;2023-02-28T00:54:29;-5.90;1.00
10597;DHT22;5346;48.766;8.674;2023-02-28T00:56:56;-5.90;1.00
10597;DHT22;5346;48.766;8.674;2023-02-28T00:59:30;-5.90;1.00
10597;DHT22;5346;48.766;8.674;2023-02-28T01:01:58;-5.90;1.00
10597;DHT22;5346;48.766;8.674;2023-02-28T01:04:32;-5.90;1.00
10597;DHT22;5346;48.766;8.674;2023-02-28T01:06:59;-5.90;1.00
10597;DHT22;5346;48.766;8.674;2023-02-28T01:09:32;-5.90;1.00
10597;DHT22;5346;48.766;8.674;2023-02-28T01:12:02;-5.90;1.00
10597;DHT22;5346;48.766;8.674;2023-02-28T01:14:36;-5.90;1.00
10597;DHT22;5346;48.766;8.674;2023-02-28T01:17:03;-5.90;1.00
10597;DHT22;5346;48.766;8.674;2023-02-28T01:19:37;-5.90;1.00
10597;DHT22;5346;48.766;8.674;2023-02-28T01:22:04;-5.90;1.00
10597;DHT22;5346;48.766;8.674;2023-02-28T01:24:41;-5.90;1.00
10597;DHT22;5346;48.766;8.674;2023-02-28T01:27:14;-5.90;1.00
10597;DHT22;5346;48.766;8.674;2023-02-28T01:29:50;-5.90;1.00
10597;DHT22;5346;48.766;8.674;2023-02-28T01:32:17;-5.90;1.00
10597;DHT22;5346;48.766;8.674;2023-02-28T01:34:50;-5.90;1.00
10597;DHT22;5346;48.766;8.674;2023-02-28T01:37:18;-5.90;1.00
10597;DHT22;5346;48.766;8.674;2023-02-28T01:39:52;-6.00;7.80
10597;DHT22;5346;48.766;8.674;2023-02-28T01:42:19;-6.00;3.30
10597;DHT22;5346;48.766;8.674;2023-02-28T01:45:06;-6.00;37.10
10597;DHT22;5346;48.766;8.674;2023-02-28T01:48:06;-6.00;99.90
10597;DHT22;5346;48.766;8.674;2023-02-28T01:50:45;-6.00;99.90
10597;DHT22;5346;48.766;8.674;2023-02-28T01:53:24;-6.00;99.90
10597;DHT22;5346;48.766;8.674;2023-02-28T01:56:06;-6.10;99.90
10597;DHT22;5346;48.766;8.674;2023-02-28T01:58:36;-6.10;99.90
10597;DHT22;5346;48.766;8.674;2023-02-28T02:01:10;-6.00;99.90
10597;DHT22;5346;48.766;8.674;2023-02-28T02:03:57;-6.00;99.90
10597;DHT22;5346;48.766;8.674;2023-02-28T02:06:52;-6.00;99.90
10597;DHT22;5346;48.766;8.674;2023-02-28T02:09:27;-6.10;99.90
10597;DHT22;5346;48.766;8.674;2023-02-28T02:12:10;-6.10;99.90
10597;DHT22;5346;48.766;8.674;2023-02-28T02:19:29;-6.10;99.90
10597;DHT22;5346;48.766;8.674;2023-02-28T02:28:31;-6.10;99.90
10597;DHT22;5346;48.766;8.674;2023-02-28T02:32:02;-6.20;1.00
10597;DHT22;5346;48.766;8.674;2023-02-28T02:34:58;-6.20;1.00
10597;DHT22;5346;48.766;8.674;2023-02-28T02:41:13;-6.30;1.00
10597;DHT22;5346;48.766;8.674;2023-02-28T02:47:03;-6.40;1.00
10597;DHT22;5346;48.766;8.674;2023-02-28T02:50:04;-6.40;1.00
10597;DHT22;5346;48.766;8.674;2023-02-28T02:52:52;-6.50;39.60
10597;DHT22;5346;48.766;8.674;2023-02-28T02:55:23;-6.60;99.90
10597;DHT22;5346;48.766;8.674;2023-02-28T02:58:04;-6.70;99.90
10597;DHT22;5346;48.766;8.674;2023-02-28T03:00:39;-6.70;99.90
10597;DHT22;5346;48.766;8.674;2023-02-28T03:03:18;-6.70;1.00
10597;DHT22;5346;48.766;8.674;2023-02-28T03:05:57;-6.60;1.00
10597;DHT22;5346;48.766;8.674;2023-02-28T03:08:37;-6.60;1.00
10597;DHT22;5346;48.766;8.674;2023-02-28T03:11:09;-6.60;1.00
10597;DHT22;5346;48.766;8.674;2023-02-28T03:16:54;-6.60;1.00
10597;DHT22;5346;48.766;8.674;2023-02-28T03:23:03;-6.50;1.00
10597;DHT22;5346;48.766;8.674;2023-02-28T03:26:00;-6.40;29.50
10597;DHT22;5346;48.766;8.674;2023-02-28T03:31:39;-6.40;1.00
10597;DHT22;5346;48.766;8.674;2023-02-28T03:34:32;-6.30;22.50
10597;DHT22;5346;48.766;8.674;2023-02-28T03:37:17;-6.30;36.60
10597;DHT22;5346;48.766;8.674;2023-02-28T03:39:57;-6.30;44.50
10597;DHT22;5346;48.766;8.674;2023-02-28T03:42:36;-6.20;61.90
10597;DHT22;5346;48.766;8.674;2023-02-28T03:45:17;-6.20;61.40
10597;DHT22;5346;48.766;8.674;2023-02-28T03:47:58;-6.10;33.00
10597;DHT22;5346;48.766;8.674;2023-02-28T03:50:40;-6.10;42.30
10597;DHT22;5346;48.766;8.674;2023-02-28T03:53:22;-6.20;31.30
10597;DHT22;5346;48.766;8.674;2023-02-28T03:55:59;-6.10;64.20
10597;DHT22;5346;48.766;8.674;2023-02-28T03:58:47;-6.10;35.40
10597;DHT22;5346;48.766;8.674;2023-02-28T04:01:38;-6.10;53.20
10597;DHT22;5346;48.766;8.674;2023-02-28T04:04:15;-6.10;61.80
10597;DHT22;5346;48.766;8.674;2023-02-28T04:06:44;-6.00;56.40
10597;DHT22;5346;48.766;8.674;2023-02-28T04:09:18;-6.10;58.80
10597;DHT22;5346;48.766;8.674;2023-02-28T04:11:50;-6.00;28.40
10597;DHT22;5346;48.766;8.674;2023-02-28T04:14:25;-6.00;27.80
10597;DHT22;5346;48.766;8.674;2023-02-28T04:16:52;-6.00;38.20
10597;DHT22;5346;48.766;8.674;2023-02-28T04:19:26;-6.00;31.60
10597;DHT22;5346;48.766;8.674;2023-02-28T04:22:00;-6.00;32.00
10597;DHT22;5346;48.766;8.674;2023-02-28T04:24:34;-6.00;57.60
10597;DHT22;5346;48.766;8.674;2023-02-28T04:27:08;-6.00;57.00
10597;DHT22;5346;48.766;8.674;2023-02-28T04:29:43;-6.10;99.90
10597;DHT22;5346;48.766;8.674;2023-02-28T04:32:18;-6.00;99.90
10597;DHT22;5346;48.766;8.674;2023-02-28T04:34:45;-6.10;99.90
10597;DHT22;5346;48.766;8.674;2023-02-28T04:37:19;-6.00;99.90
10597;DHT22;5346;48.766;8.674;2023-02-28T04:39:55;-6.10;99.90
10597;DHT22;5346;48.766;8.674;2023-02-28T04:42:29;-6.00;99.90
10597;DHT22;5346;48.766;8.674;2023-02-28T04:45:08;-6.00;99.90
10597;DHT22;5346;48.766;8.674;2023-02-28T04:47:48;-6.00;99.90
10597;DHT22;5346;48.766;8.674;2023-02-28T04:50:28;-6.00;99.90
10597;DHT22;5346;48.766;8.674;2023-02-28T04:52:56;-5.90;99.90
10597;DHT22;5346;48.766;8.674;2023-02-28T04:55:30;-5.90;99.90
10597;DHT22;5346;48.766;8.674;2023-02-28T04:58:07;-5.80;99.90
10597;DHT22;5346;48.766;8.674;2023-02-28T05:00:41;-5.80;99.90
10597;DHT22;5346;48.766;8.674;2023-02-28T05:03:15;-5.70;99.90
10597;DHT22;5346;48.766;8.674;2023-02-28T05:05:49;-5.70;99.90
10597;DHT22;5346;48.766;8.674;2023-02-28T05:08:24;-5.70;99.90
10597;DHT22;5346;48.766;8.674;2023-02-28T05:10:58;-5.60;99.90
10597;DHT22;5346;48.766;8.674;2023-02-28T05:13:28;-5.60;99.90
10597;DHT22;5346;48.766;8.674;2023-02-28T05:16:02;-5.60;99.90
10597;DHT22;5346;48.766;8.674;2023-02-28T05:18:35;-5.60;99.90
10597;DHT22;5346;48.766;8.674;2023-02-28T05:21:02;-5.50;99.90
10597;DHT22;5346;48.766;8.674;2023-02-28T05:23:36;-5.50;99.90
10597;DHT22;5346;48.766;8.674;2023-02-28T05:26:03;-5.50;99.90
10597;DHT22;5346;48.766;8.674;2023-02-28T05:28:39;-5.50;99.90
10597;DHT22;5346;48.766;8.674;2023-02-28T05:31:14;-5.50;99.90
10597;DHT22;5346;48.766;8.674;2023-02-28T05:33:49;-5.50;99.90
10597;DHT22;5346;48.766;8.674;2023-02-28T05:36:23;-5.50;99.90
10597;DHT22;5346;48.766;8.674;2023-02-28T05:38:57;-5.50;99.90
10597;DHT22;5346;48.766;8.674;2023-02-28T05:41:30;-5.40;99.90
10597;DHT22;5346;48.766;8.674;2023-02-28T05:43:58;-5.50;99.90
10597;DHT22;5346;48.766;8.674;2023-02-28T05:46:33;-5.40;99.90
10597;DHT22;5346;48.766;8.674;2023-02-28T05:49:07;-5.40;99.90
10597;DHT22;5346;48.766;8.674;2023-02-28T05:51:36;-5.40;99.90
10597;DHT22;5346;48.766;8.674;2023-02-28T05:54:13;-5.40;99.90
10597;DHT22;5346;48.766;8.674;2023-02-28T05:56:47;-5.40;99.90
10597;DHT22;5346;48.766;8.674;2023-02-28T05:59:14;-5.40;99.90
10597;DHT22;5346;48.766;8.674;2023-02-28T06:01:48;-5.40;99.90
10597;DHT22;5346;48.766;8.674;2023-02-28T06:04:22;-5.40;99.90
10597;DHT22;5346;48.766;8.674;2023-02-28T06:06:58;-5.40;99.90
10597;DHT22;5346;48.766;8.674;2023-02-28T06:09:32;-5.30;99.90
10597;DHT22;5346;48.766;8.674;2023-02-28T06:12:01;-5.30;99.90
10597;DHT22;5346;48.766;8.674;2023-02-28T06:14:38;-5.30;99.90
10597;DHT22;5346;48.766;8.674;2023-02-28T06:17:05;-5.30;88.50
10597;DHT22;5346;48.766;8.674;2023-02-28T06:19:39;-5.30;73.10
10597;DHT22;5346;48.766;8.674;2023-02-28T06:22:08;-5.30;84.00
10597;DHT22;5346;48.766;8.674;2023-02-28T06:24:42;-5.30;85.50
10597;DHT22;5346;48.766;8.674;2023-02-28T06:27:16;-5.30;99.90
10597;DHT22;5346;48.766;8.674;2023-02-28T06:29:54;-5.30;85.30
10597;DHT22;5346;48.766;8.674;2023-02-28T06:32:29;-5.30;52.50
10597;DHT22;5346;48.766;8.674;2023-02-28T06:35:03;-5.20;72.90
10597;DHT22;5346;48.766;8.674;2023-02-28T06:37:37;-5.20;10.80
10597;DHT22;5346;48.766;8.674;2023-02-28T06:40:11;-5.20;1.00
10597;DHT22;5346;48.766;8.674;2023-02-28T06:42:39;-5.20;1.00
10597;DHT22;5346;48.766;8.674;2023-02-28T06:45:13;-5.20;1.00
10597;DHT22;5346;48.766;8.674;2023-02-28T06:47:53;-5.10;1.00
10597;DHT22;5346;48.766;8.674;2023-02-28T06:50:27;-5.10;1.00
10597;DHT22;5346;48.766;8.674;2023-02-28T06:53:03;-5.00;1.00
10597;DHT22;5346;48.766;8.674;2023-02-28T06:55:38;-5.10;1.00
10597;DHT22;5346;48.766;8.674;2023-02-28T06:58:06;-5.00;1.00
10597;DHT22;5346;48.766;8.674;2023-02-28T07:00:51;-5.00;1.00
10597;DHT22;5346;48.766;8.674;2023-02-28T07:03:19;-4.90;1.00
10597;DHT22;5346;48.766;8.674;2023-02-28T07:05:53;-4.90;1.00
10597;DHT22;5346;48.766;8.674;2023-02-28T07:08:27;-4.90;99.90
10597;DHT22;5346;48.766;8.674;2023-02-28T07:11:02;-4.90;99.90
10597;DHT22;5346;48.766;8.674;2023-02-28T07:13:29;-4.90;99.90
10597;DHT22;5346;48.766;8.674;2023-02-28T07:16:05;-5.00;99.90
10597;DHT22;5346;48.766;8.674;2023-02-28T07:18:41;-4.90;99.90
10597;DHT22;5346;48.766;8.674;2023-02-28T07:21:15;-4.90;99.90
10597;DHT22;5346;48.766;8.674;2023-02-28T07:23:49;-4.90;99.90
10597;DHT22;5346;48.766;8.674;2023-02-28T07:26:24;-4.90;99.90
10597;DHT22;5346;48.766;8.674;2023-02-28T07:28:58;-4.80;99.90
10597;DHT22;5346;48.766;8.674;2023-02-28T07:31:25;-4.90;99.90
10597;DHT22;5346;48.766;8.674;2023-02-28T07:33:59;-4.90;99.90
10597;DHT22;5346;48.766;8.674;2023-02-28T07:36:26;-4.80;99.90
10597;DHT22;5346;48.766;8.674;2023-02-28T07:39:00;-4.90;99.90
10597;DHT22;5346;48.766;8.674;2023-02-28T07:41:27;-4.80;99.90
10597;DHT22;5346;48.766;8.674;2023-02-28T07:44:03;-4.80;99.90
10597;DHT22;5346;48.766;8.674;2023-02-28T07:46:31;-4.80;99.90
10597;DHT22;5346;48.766;8.674;2023-02-28T07:49:12;-4.70;99.90
10597;DHT22;5346;48.766;8.674;2023-02-28T07:51:39;-4.70;99.90
10597;DHT22;5346;48.766;8.674;2023-02-28T07:54:07;-4.70;99.90
10597;DHT22;5346;48.766;8.674;2023-02-28T07:56:41;-4.70;99.90
10597;DHT22;5346;48.766;8.674;2023-02-28T07:59:08;-4.60;99.90
10597;DHT22;5346;48.766;8.674;2023-02-28T08:01:42;-4.60;99.90
10597;DHT22;5346;48.766;8.674;2023-02-28T08:04:11;-4.50;48.60
10597;DHT22;5346;48.766;8.674;2023-02-28T08:06:46;-4.50;9.90
10597;DHT22;5346;48.766;8.674;2023-02-28T08:09:14;-4.40;1.00
10597;DHT22;5346;48.766;8.674;2023-02-28T08:11:42;-4.40;1.00
10597;DHT22;5346;48.766;8.674;2023-02-28T08:14:16;-4.30;1.00
10597;DHT22;5346;48.766;8.674;2023-02-28T08:16:50;-4.30;1.00
10597;DHT22;5346;48.766;8.674;2023-02-28T08:19:17;-4.30;1.00
10597;DHT22;5346;48.766;8.674;2023-02-28T08:21:51;-4.30;1.00
10597;DHT22;5346;48.766;8.674;2023-02-28T08:24:25;-4.20;1.00
10597;DHT22;5346;48.766;8.674;2023-02-28T08:26:59;-4.20;1.00
10597;DHT22;5346;48.766;8.674;2023-02-28T08:29:26;-4.10;1.00
10597;DHT22;5346;48.766;8.674;2023-02-28T08:32:00;-4.10;1.00
10597;DHT22;5346;48.766;8.674;2023-02-28T08:34:46;-4.10;99.90
10597;DHT22;5346;48.766;8.674;2023-02-28T08:37:14;-4.10;99.90
10597;DHT22;5346;48.766;8.674;2023-02-28T08:39:48;-4.20;99.90
10597;DHT22;5346;48.766;8.674;2023-02-28T08:42:15;-4.10;99.90
10597;DHT22;5346;48.766;8.674;2023-02-28T08:44:55;-4.00;99.90
10597;DHT22;5346;48.766;8.674;2023-02-28T08:47:37;-4.00;99.90
10597;DHT22;5346;48.766;8.674;2023-02-28T08:50:11;-4.10;99.90
10597;DHT22;5346;48.766;8.674;2023-02-28T08:52:44;-4.00;99.90
10597;DHT22;5346;48.766;8.674;2023-02-28T08:55:18;-4.00;99.90
10597;DHT22;5346;48.766;8.674;2023-02-28T08:57:53;-3.90;99.90
10597;DHT22;5346;48.766;8.674;2023-02-28T09:00:28;-3.80;99.90
10597;DHT22;5346;48.766;8.674;2023-02-28T09:02:55;-3.90;99.60
10597;DHT22;5346;48.766;8.674;2023-02-28T09:05:29;-3.90;99.90
10597;DHT22;5346;48.766;8.674;2023-02-28T09:07:57;-3.90;99.90
10597;DHT22;5346;48.766;8.674;2023-02-28T09:10:31;-3.90;66.20
10597;DHT22;5346;48.766;8.674;2023-02-28T09:12:58;-3.90;36.60
10597;DHT22;5346;48.766;8.674;2023-02-28T09:15:32;-3.80;24.80
10597;DHT22;5346;48.766;8.674;2023-02-28T09:18:06;-3.80;1.00
10597;DHT22;5346;48.766;8.674;2023-02-28T09:20:41;-3.80;31.70
10597;DHT22;5346;48.766;8.674;2023-02-28T09:23:11;-3.80;1.00
10597;DHT22;5346;48.766;8.674;2023-02-28T09:25:53;-3.70;1.00
10597;DHT22;5346;48.766;8.674;2023-02-28T09:28:34;-3.60;1.00
10597;DHT22;5346;48.766;8.674;2023-02-28T09:31:01;-3.60;1.00
10597;DHT22;5346;48.766;8.674;2023-02-28T09:33:39;-3.50;1.00
10597;DHT22;5346;48.766;8.674;2023-02-28T09:36:13;-3.40;1.00
10597;DHT22;5346;48.766;8.674;2023-02-28T09:38:49;-3.40;1.00
10597;DHT22;5346;48.766;8.674;2023-02-28T09:41:26;-3.40;1.00
10597;DHT22;5346;48.766;8.674;2023-02-28T09:44:05;-3.40;1.00
10597;DHT22;5346;48.766;8.674;2023-02-28T09:46:48;-3.40;1.00
10597;DHT22;5346;48.766;8.674;2023-02-28T09:49:41;-3.40;1.00
10597;DHT22;5346;48.766;8.674;2023-02-28T09:52:19;-3.30;1.00
10597;DHT22;5346;48.766;8.674;2023-02-28T09:57:54;-3.30;1.00
10597;DHT22;5346;48.766;8.674;2023-02-28T10:00:37;-3.20;1.00
10597;DHT22;5346;48.766;8.674;2023-02-28T10:03:24;-3.20;1.00
10597;DHT22;5346;48.766;8.674;2023-02-28T10:06:20;-3.10;1.00
10597;DHT22;5346;48.766;8.674;2023-02-28T10:09:04;-3.00;1.00
10597;DHT22;5346;48.766;8.674;2023-02-28T10:11:41;-3.10;1.00
10597;DHT22;5346;48.766;8.674;2023-02-28T10:14:23;-3.10;1.00
10597;DHT22;5346;48.766;8.674;2023-02-28T10:17:08;-3.10;1.00
10597;DHT22;5346;48.766;8.674;2023-02-28T10:20:02;-3.00;1.00
10597;DHT22;5346;48.766;8.674;2023-02-28T10:25:31;-2.70;1.00
10597;DHT22;5346;48.766;8.674;2023-02-28T10:28:13;-2.70;99.90
10597;DHT22;5346;48.766;8.674;2023-02-28T10:30:51;-2.50;99.90
10597;DHT22;5346;48.766;8.674;2023-02-28T10:33:34;-2.40;99.90
10597;DHT22;5346;48.766;8.674;2023-02-28T10:36:15;-2.40;99.90
10597;DHT22;5346;48.766;8.674;2023-02-28T10:38:51;-2.30;99.90
10597;DHT22;5346;48.766;8.674;2023-02-28T10:41:31;-2.20;99.90
10597;DHT22;5346;48.766;8.674;2023-02-28T10:44:22;-2.20;99.90
10597;DHT22;5346;48.766;8.674;2023-02-28T10:46:57;-2.10;99.90
10597;DHT22;5346;48.766;8.674;2023-02-28T10:49:49;-2.10;99.90
10597;DHT22;5346;48.766;8.674;2023-02-28T10:52:40;-2.00;99.90
10597;DHT22;5346;48.766;8.674;2023-02-28T10:55:23;-1.90;99.90
10597;DHT22;5346;48.766;8.674;2023-02-28T10:57:58;-1.90;99.90
10597;DHT22;5346;48.766;8.674;2023-02-28T11:00:34;-1.90;99.90
10597;DHT22;5346;48.766;8.674;2023-02-28T11:03:30;-1.80;99.90
10597;DHT22;5346;48.766;8.674;2023-02-28T11:06:18;-1.70;99.90
10597;DHT22;5346;48.766;8.674;2023-02-28T11:08:54;-1.70;99.90
10597;DHT22;5346;48.766;8.674;2023-02-28T11:11:30;-1.50;99.90
10597;DHT22;5346;48.766;8.674;2023-02-28T11:14:21;-1.50;99.90
10597;DHT22;5346;48.766;8.674;2023-02-28T11:17:14;-1.30;99.90
10597;DHT22;5346;48.766;8.674;2023-02-28T11:19:51;-1.10;99.90
10597;DHT22;5346;48.766;8.674;2023-02-28T11:22:29;-1.20;99.90
10597;DHT22;5346;48.766;8.674;2023-02-28T11:25:07;-1.00;99.90
10597;DHT22;5346;48.766;8.674;2023-02-28T11:27:54;-0.80;99.90
10597;DHT22;5346;48.766;8.674;2023-02-28T11:36:28;-0.40;99.90
10597;DHT22;5346;48.766;8.674;2023-02-28T11:39:09;-0.30;99.90
10597;DHT22;5346;48.766;8.674;2023-02-28T12:00:38;0.10;99.90
10597;DHT22;5346;48.766;8.674;2023-02-28T12:04:01;0.40;1.00
10597;DHT22;5346;48.766;8.674;2023-02-28T12:27:07;1.60;99.90
10597;DHT22;5346;48.766;8.674;2023-02-28T12:32:50;1.50;99.90
10597;DHT22;5346;48.766;8.674;2023-02-28T12:35:26;1.40;99.90
10597;DHT22;5346;48.766;8.674;2023-02-28T12:38:21;1.50;99.90
10597;DHT22;5346;48.766;8.674;2023-02-28T12:43:44;1.50;99.90
10597;DHT22;5346;48.766;8.674;2023-02-28T12:46:21;2.10;99.90
10597;DHT22;5346;48.766;8.674;2023-02-28T12:49:34;2.30;99.90
10597;DHT22;5346;48.766;8.674;2023-02-28T12:52:10;2.50;99.90
10597;DHT22;5346;48.766;8.674;2023-02-28T12:57:58;3.30;99.90
10597;DHT22;5346;48.766;8.674;2023-02-28T13:22:42;7.40;1.00
10597;DHT22;5346;48.766;8.674;2023-02-28T13:27:50;6.80;1.00
10597;DHT22;5346;48.766;8.674;2023-02-28T13:33:31;6.70;1.00
10597;DHT22;5346;48.766;8.674;2023-02-28T13:36:09;6.20;1.00
10597;DHT22;5346;48.766;8.674;2023-02-28T13:38:57;5.50;1.00
10597;DHT22;5346;48.766;8.674;2023-02-28T13:41:41;5.20;1.00
10597;DHT22;5346;48.766;8.674;2023-02-28T13:44:21;5.10;1.00
10597;DHT22;5346;48.766;8.674;2023-02-28T13:49:41;5.50;1.00
10597;DHT22;5346;48.766;8.674;2023-02-28T13:52:20;5.90;1.00
10597;DHT22;5346;48.766;8.674;2023-02-28T13:58:24;6.10;1.00
10597;DHT22;5346;48.766;8.674;2023-02-28T14:07:26;6.10;1.00
10597;DHT22;5346;48.766;8.674;2023-02-28T14:13:10;7.20;1.00
10597;DHT22;5346;48.766;8.674;2023-02-28T14:16:02;8.00;1.00
10597;DHT22;5346;48.766;8.674;2023-02-28T14:18:57;8.00;1.00
10597;DHT22;5346;48.766;8.674;2023-02-28T14:21:34;8.30;1.00
10597;DHT22;5346;48.766;8.674;2023-02-28T14:27:03;6.50;1.00
10597;DHT22;5346;48.766;8.674;2023-02-28T14:36:14;5.20;1.00
10597;DHT22;5346;48.766;8.674;2023-02-28T14:39:24;6.00;1.00
10597;DHT22;5346;48.766;8.674;2023-02-28T14:41:59;6.60;1.00
10597;DHT22;5346;48.766;8.674;2023-02-28T14:44:31;6.70;1.00
10597;DHT22;5346;48.766;8.674;2023-02-28T14:47:14;6.70;1.00
10597;DHT22;5346;48.766;8.674;2023-02-28T14:49:57;6.80;1.00
10597;DHT22;5346;48.766;8.674;2023-02-28T14:52:32;6.50;1.00
10597;DHT22;5346;48.766;8.674;2023-02-28T14:57:50;7.00;1.00
10597;DHT22;5346;48.766;8.674;2023-02-28T15:00:29;7.20;1.00
10597;DHT22;5346;48.766;8.674;2023-02-28T15:03:23;7.30;1.00
10597;DHT22;5346;48.766;8.674;2023-02-28T15:06:14;7.50;1.00
10597;DHT22;5346;48.766;8.674;2023-02-28T15:09:14;7.10;1.00
10597;DHT22;5346;48.766;8.674;2023-02-28T15:11:47;7.20;1.00
10597;DHT22;5346;48.766;8.674;2023-02-28T15:14:24;6.50;1.00
10597;DHT22;5346;48.766;8.674;2023-02-28T15:16:59;5.80;1.00
10597;DHT22;5346;48.766;8.674;2023-02-28T15:19:41;5.10;1.00
10597;DHT22;5346;48.766;8.674;2023-02-28T15:22:17;4.30;1.00
10597;DHT22;5346;48.766;8.674;2023-02-28T15:24:59;4.20;1.00
10597;DHT22;5346;48.766;8.674;2023-02-28T15:27:31;3.90;1.00
10597;DHT22;5346;48.766;8.674;2023-02-28T15:30:16;3.70;1.00
10597;DHT22;5346;48.766;8.674;2023-02-28T15:33:29;3.80;1.00
10597;DHT22;5346;48.766;8.674;2023-02-28T15:36:16;4.00;1.00
10597;DHT22;5346;48.766;8.674;2023-02-28T15:38:55;4.00;1.00
10597;DHT22;5346;48.766;8.674;2023-02-28T15:41:37;4.00;1.00
10597;DHT22;5346;48.766;8.674;2023-02-28T15:44:27;3.90;1.00
10597;DHT22;5346;48.766;8.674;2023-02-28T15:47:02;3.80;1.00
10597;DHT22;5346;48.766;8.674;2023-02-28T15:50:03;3.50;1.00
10597;DHT22;5346;48.766;8.674;2023-02-28T15:52:46;3.30;1.00
10597;DHT22;5346;48.766;8.674;2023-02-28T15:55:29;3.30;1.00
10597;DHT22;5346;48.766;8.674;2023-02-28T15:58:00;3.30;1.00
10597;DHT22;5346;48.766;8.674;2023-02-28T16:00:35;3.10;1.00
10597;DHT22;5346;48.766;8.674;2023-02-28T16:03:26;2.90;1.00
10597;DHT22;5346;48.766;8.674;2023-02-28T16:06:12;2.60;1.00
10597;DHT22;5346;48.766;8.674;2023-02-28T16:08:59;2.20;1.00
10597;DHT22;5346;48.766;8.674;2023-02-28T16:11:35;1.90;1.00
10597;DHT22;5346;48.766;8.674;2023-02-28T16:14:15;1.60;1.00
10597;DHT22;5346;48.766;8.674;2023-02-28T16:16:54;1.30;1.00
10597;DHT22;5346;48.766;8.674;2023-02-28T16:19:31;1.10;1.00
10597;DHT22;5346;48.766;8.674;2023-02-28T16:22:00;0.80;1.00
10597;DHT22;5346;48.766;8.674;2023-02-28T16:24:28;0.70;1.00
10597;DHT22;5346;48.766;8.674;2023-02-28T16:27:02;0.60;1.00
10597;DHT22;5346;48.766;8.674;2023-02-28T16:29:34;0.40;1.00
10597;DHT22;5346;48.766;8.674;2023-02-28T16:32:15;0.30;1.00
10597;DHT22;5346;48.766;8.674;2023-02-28T16:34:49;0.20;1.00
10597;DHT22;5346;48.766;8.674;2023-02-28T16:37:23;0.10;1.00
10597;DHT22;5346;48.766;8.674;2023-02-28T16:39:57;0.10;1.00
10597;DHT22;5346;48.766;8.674;2023-02-28T16:42:31;0.00;1.00
10597;DHT22;5346;48.766;8.674;2023-02-28T16:44:59;-0.10;6.40
10597;DHT22;5346;48.766;8.674;2023-02-28T16:47:33;-0.10;12.10
10597;DHT22;5346;48.766;8.674;2023-02-28T16:50:19;-0.30;21.40
10597;DHT22;5346;48.766;8.674;2023-02-28T16:52:54;-0.40;33.80
10597;DHT22;5346;48.766;8.674;2023-02-28T16:55:23;-0.50;48.30
10597;DHT22;5346;48.766;8.674;2023-02-28T16:58:02;-0.60;50.00
10597;DHT22;5346;48.766;8.674;2023-02-28T17:00:32;-0.70;57.30
10597;DHT22;5346;48.766;8.674;2023-02-28T17:03:14;-0.80;86.20
10597;DHT22;5346;48.766;8.674;2023-02-28T17:05:58;-0.90;99.90
10597;DHT22;5346;48.766;8.674;2023-02-28T17:08:32;-1.10;99.90
10597;DHT22;5346;48.766;8.674;2023-02-28T17:10:59;-1.20;99.90
10597;DHT22;5346;48.766;8.674;2023-02-28T17:13:37;-1.20;99.90
10597;DHT22;5346;48.766;8.674;2023-02-28T17:19:02;-1.40;99.90
10597;DHT22;5346;48.766;8.674;2023-02-28T17:21:31;-1.50;99.90
10597;DHT22;5346;48.766;8.674;2023-02-28T17:24:05;-1.50;99.90
10597;DHT22;5346;48.766;8.674;2023-02-28T17:26:44;-1.70;99.90
10597;DHT22;5346;48.766;8.674;2023-02-28T17:29:20;-1.70;99.90
10597;DHT22;5346;48.766;8.674;2023-02-28T17:31:55;-1.80;99.90
10597;DHT22;5346;48.766;8.674;2023-02-28T17:34:26;-1.80;99.90
10597;DHT22;5346;48.766;8.674;2023-02-28T17:37:00;-1.80;99.90
10597;DHT22;5346;48.766;8.674;2023-02-28T17:39:29;-1.70;99.90
10597;DHT22;5346;48.766;8.674;2023-02-28T17:42:04;-1.70;99.90
10597;DHT22;5346;48.766;8.674;2023-02-28T17:44:31;-1.80;99.90
10597;DHT22;5346;48.766;8.674;2023-02-28T17:47:12;-1.80;99.90
10597;DHT22;5346;48.766;8.674;2023-02-28T17:49:39;-1.90;99.90
10597;DHT22;5346;48.766;8.674;2023-02-28T17:52:13;-1.90;99.90
10597;DHT22;5346;48.766;8.674;2023-02-28T17:54:40;-1.90;99.90
10597;DHT22;5346;48.766;8.674;2023-02-28T17:57:16;-1.90;99.90
10597;DHT22;5346;48.766;8.674;2023-02-28T17:59:45;-2.00;99.90
10597;DHT22;5346;48.766;8.674;2023-02-28T18:02:20;-2.00;99.90
10597;DHT22;5346;48.766;8.674;2023-02-28T18:04:55;-2.10;99.90
10597;DHT22;5346;48.766;8.674;2023-02-28T18:07:36;-2.10;99.90
10597;DHT22;5346;48.766;8.674;2023-02-28T18:10:06;-2.10;99.90
10597;DHT22;5346;48.766;8.674;2023-02-28T18:12:44;-2.10;99.90
10597;DHT22;5346;48.766;8.674;2023-02-28T18:15:21;-2.20;99.90
10597;DHT22;5346;48.766;8.674;2023-02-28T18:17:55;-2.20;99.90
10597;DHT22;5346;48.766;8.674;2023-02-28T18:20:30;-2.20;99.90
10597;DHT22;5346;48.766;8.674;2023-02-28T18:22:57;-2.20;99.90
10597;DHT22;5346;48.766;8.674;2023-02-28T18:25:24;-2.20;99.90
10597;DHT22;5346;48.766;8.674;2023-02-28T18:27:58;-2.10;99.90
10597;DHT22;5346;48.766;8.674;2023-02-28T18:30:27;-2.10;99.90
10597;DHT22;5346;48.766;8.674;2023-02-28T18:33:03;-2.10;99.90
10597;DHT22;5346;48.766;8.674;2023-02-28T18:35:37;-2.20;99.90
10597;DHT22;5346;48.766;8.674;2023-02-28T18:38:16;-2.20;99.90
10597;DHT22;5346;48.766;8.674;2023-02-28T18:41:02;-2.10;99.90
10597;DHT22;5346;48.766;8.674;2023-02-28T18:43:39;-2.10;99.90
10597;DHT22;5346;48.766;8.674;2023-02-28T18:46:09;-2.10;99.90
10597;DHT22;5346;48.766;8.674;2023-02-28T18:48:44;-2.10;99.90
10597;DHT22;5346;48.766;8.674;2023-02-28T18:51:23;-2.10;99.90
10597;DHT22;5346;48.766;8.674;2023-02-28T18:53:58;-2.10;99.90
10597;DHT22;5346;48.766;8.674;2023-02-28T18:56:32;-2.10;99.90
10597;DHT22;5346;48.766;8.674;2023-02-28T18:58:59;-2.10;99.90
10597;DHT22;5346;48.766;8.674;2023-02-28T19:01:32;-2.10;99.90
10597;DHT22;5346;48.766;8.674;2023-02-28T19:04:01;-2.10;99.90
10597;DHT22;5346;48.766;8.674;2023-02-28T19:06:36;-2.20;99.90
10597;DHT22;5346;48.766;8.674;2023-02-28T19:09:04;-2.20;99.90
10597;DHT22;5346;48.766;8.674;2023-02-28T19:11:38;-2.10;99.90
10597;DHT22;5346;48.766;8.674;2023-02-28T19:14:12;-2.10;99.90
10597;DHT22;5346;48.766;8.674;2023-02-28T19:16:39;-2.10;99.90
10597;DHT22;5346;48.766;8.674;2023-02-28T19:19:13;-2.10;99.90
10597;DHT22;5346;48.766;8.674;2023-02-28T19:21:40;-2.20;99.90